Time;durP1;ratioP1;P1;durP2;ratioP2;P2;SDS_P1;SDS_P2;PMS_P1;PMS_P2;Temp;Humidity;BMP_temperature;BMP_pressure;BME280_temperature;BME280_humidity;BME280_pressure;Samples;Min_cycle;Max_cycle;Signal;HPM_P1;HPM_P2
2023/01/04 00:01:59;;;;;;;4.57;1.95;;;9.50;99.90;;;;;;5040645;28;20022;-72
2023/01/04 00:04:25;;;;;;;1.95;1.50;;;9.40;99.90;;;;;;5046278;28;20088;-72
2023/01/04 00:06:50;;;;;;;3.67;1.70;;;9.40;99.90;;;;;;5052469;28;20519;-72
2023/01/04 00:09:16;;;;;;;6.32;2.45;;;9.40;99.90;;;;;;5051911;28;20017;-73
2023/01/04 00:11:41;;;;;;;6.13;1.95;;;9.40;99.90;;;;;;5052301;28;20057;-72
2023/01/04 00:14:09;;;;;;;2.70;1.50;;;9.50;99.90;;;;;;5052380;28;20075;-72
2023/01/04 00:16:35;;;;;;;4.68;1.80;;;9.50;99.90;;;;;;5051778;28;20481;-73
2023/01/04 00:19:01;;;;;;;3.13;1.83;;;9.40;99.90;;;;;;5052156;28;20087;-73
2023/01/04 00:21:29;;;;;;;6.43;1.90;;;9.40;99.90;;;;;;5052374;28;20369;-72
2023/01/04 00:23:57;;;;;;;3.25;1.40;;;9.50;99.90;;;;;;5051603;28;20021;-73
2023/01/04 00:26:34;;;;;;;4.53;1.90;;;9.50;99.90;;;;;;5052283;28;20055;-72
2023/01/04 00:29:02;;;;;;;1.65;1.42;;;9.50;99.90;;;;;;5051399;28;20057;-73
2023/01/04 00:31:28;;;;;;;3.58;1.50;;;9.50;99.90;;;;;;5052399;28;20021;-72
2023/01/04 00:33:55;;;;;;;3.65;1.55;;;9.50;99.90;;;;;;5051948;28;20025;-72
2023/01/04 00:36:22;;;;;;;5.05;2.58;;;9.50;99.90;;;;;;5051451;28;20099;-73
2023/01/04 00:39:05;;;;;;;4.90;1.85;;;9.50;99.90;;;;;;5052415;28;20063;-73
2023/01/04 00:41:43;;;;;;;2.85;1.50;;;9.50;99.90;;;;;;5052274;28;20029;-73
2023/01/04 00:44:10;;;;;;;2.75;1.33;;;9.60;99.90;;;;;;5051262;28;20040;-73
2023/01/04 00:46:36;;;;;;;4.43;1.70;;;9.50;99.90;;;;;;5052070;28;20036;-72
2023/01/04 00:49:02;;;;;;;4.68;1.70;;;9.60;99.90;;;;;;5051046;28;20017;-73
2023/01/04 00:51:29;;;;;;;5.15;1.85;;;9.80;99.90;;;;;;5051418;28;20084;-73
2023/01/04 00:53:55;;;;;;;2.85;1.70;;;9.60;99.90;;;;;;5048990;28;20025;-72
2023/01/04 00:56:21;;;;;;;3.60;1.60;;;9.60;99.90;;;;;;5041208;28;20384;-72
2023/01/04 00:58:47;;;;;;;4.38;2.17;;;9.60;99.90;;;;;;5051243;28;20033;-71
2023/01/04 01:01:12;;;;;;;2.15;1.90;;;9.60;99.90;;;;;;5051802;28;20021;-73
2023/01/04 01:03:38;;;;;;;2.17;1.70;;;9.70;99.90;;;;;;5051979;28;20025;-73
2023/01/04 01:06:05;;;;;;;1.63;1.42;;;9.70;99.90;;;;;;5050924;28;20017;-73
2023/01/04 01:08:32;;;;;;;1.70;1.60;;;9.70;99.90;;;;;;5051959;28;20029;-72
2023/01/04 01:11:04;;;;;;;3.40;2.13;;;9.70;99.90;;;;;;5051240;28;20465;-74
2023/01/04 01:13:30;;;;;;;5.13;1.80;;;9.70;99.90;;;;;;5052070;28;20119;-72
2023/01/04 01:16:00;;;;;;;2.30;2.10;;;9.80;99.90;;;;;;5051578;28;20124;-72
2023/01/04 01:18:27;;;;;;;3.50;2.22;;;9.80;99.90;;;;;;5051168;28;20139;-71
2023/01/04 01:20:52;;;;;;;2.63;2.20;;;9.80;99.90;;;;;;5051443;28;20087;-71
2023/01/04 01:23:18;;;;;;;2.63;2.05;;;9.80;99.90;;;;;;5051885;28;20123;-72
2023/01/04 01:25:44;;;;;;;2.25;2.05;;;9.80;99.90;;;;;;5051681;28;20025;-72
2023/01/04 01:28:09;;;;;;;3.55;2.42;;;9.90;99.90;;;;;;5051249;28;20041;-73
2023/01/04 01:30:40;;;;;;;2.78;2.05;;;9.90;99.90;;;;;;5051803;28;20376;-72
2023/01/04 01:33:06;;;;;;;4.63;2.50;;;9.90;99.90;;;;;;5050942;28;20153;-72
2023/01/04 01:35:32;;;;;;;3.75;2.30;;;9.90;99.90;;;;;;5052254;28;20477;-72
2023/01/04 01:37:58;;;;;;;2.70;2.50;;;10.00;99.90;;;;;;5051087;28;20135;-73
2023/01/04 01:40:23;;;;;;;4.65;2.58;;;10.00;99.90;;;;;;5050881;28;20017;-72
2023/01/04 01:42:49;;;;;;;5.95;3.13;;;10.10;99.90;;;;;;5051408;28;20024;-72
2023/01/04 01:45:28;;;;;;;3.40;2.70;;;10.10;99.90;;;;;;5051262;28;20060;-72
2023/01/04 01:47:58;;;;;;;5.82;3.20;;;10.10;99.90;;;;;;5050839;28;20036;-72
2023/01/04 01:50:30;;;;;;;4.72;3.15;;;10.20;99.90;;;;;;5051717;28;20020;-72
2023/01/04 01:52:57;;;;;;;3.60;2.83;;;10.20;99.90;;;;;;5051206;28;20075;-72
2023/01/04 01:55:23;;;;;;;5.45;3.30;;;10.20;99.90;;;;;;5036657;28;20034;-72
2023/01/04 01:57:50;;;;;;;3.75;2.80;;;10.20;99.90;;;;;;5051487;28;20086;-73
2023/01/04 02:00:16;;;;;;;4.97;3.25;;;10.30;99.90;;;;;;5052686;28;20029;-74
2023/01/04 02:03:11;;;;;;;3.30;2.88;;;10.30;99.90;;;;;;5055458;28;20056;-72
2023/01/04 02:05:37;;;;;;;3.53;3.22;;;10.30;99.90;;;;;;5051687;28;20428;-73
2023/01/04 02:08:05;;;;;;;5.47;3.10;;;10.40;99.90;;;;;;5054316;28;20025;-72
2023/01/04 02:10:31;;;;;;;3.05;2.85;;;10.40;99.90;;;;;;5055153;28;20025;-72
2023/01/04 02:12:57;;;;;;;4.35;2.88;;;10.40;99.90;;;;;;5054807;28;20025;-72
2023/01/04 02:15:29;;;;;;;2.53;2.33;;;10.40;99.90;;;;;;5054208;28;20080;-72
2023/01/04 02:18:09;;;;;;;3.92;2.55;;;10.40;99.90;;;;;;5054327;28;20033;-73
2023/01/04 02:20:49;;;;;;;;;;;10.50;99.90;;;;;;5055120;28;20021;-72
2023/01/04 02:23:31;;;;;;;2.55;2.30;;;10.50;99.90;;;;;;5054499;28;19905;-72
2023/01/04 02:26:23;;;;;;;2.25;2.05;;;10.60;99.90;;;;;;5054520;28;20454;-72
2023/01/04 02:29:26;;;;;;;3.65;2.17;;;10.60;99.90;;;;;;5053770;28;20045;-72
2023/01/04 02:32:01;;;;;;;2.60;2.40;;;10.60;99.90;;;;;;5054329;28;20468;-72
2023/01/04 02:34:43;;;;;;;3.08;2.35;;;10.70;99.90;;;;;;5054668;28;20017;-73
2023/01/04 02:37:17;;;;;;;2.33;2.08;;;10.60;99.90;;;;;;5053412;28;20496;-73
2023/01/04 02:40:07;;;;;;;2.50;2.30;;;10.70;99.90;;;;;;5054592;28;20024;-72
2023/01/04 02:45:38;;;;;;;3.03;2.60;;;10.70;99.90;;;;;;5040287;28;20783;-72
2023/01/04 02:50:56;;;;;;;3.17;2.88;;;10.80;99.90;;;;;;5053197;28;20113;-73
2023/01/04 02:53:28;;;;;;;4.35;2.90;;;10.80;99.90;;;;;;5054111;28;20032;-73
2023/01/04 02:56:36;;;;;;;2.92;2.72;;;10.80;99.90;;;;;;5039295;28;20021;-73
2023/01/04 02:59:13;;;;;;;6.05;3.17;;;10.80;99.90;;;;;;5052848;28;20043;-72
2023/01/04 03:08:27;;;;;;;3.55;3.10;;;10.80;99.90;;;;;;5043487;28;20040;-72
2023/01/04 03:11:03;;;;;;;2.72;2.53;;;10.80;99.90;;;;;;5052512;28;20031;-72
2023/01/04 03:13:41;;;;;;;3.55;3.00;;;10.90;99.90;;;;;;5054084;28;20021;-72
2023/01/04 03:16:12;;;;;;;5.10;2.72;;;10.80;99.90;;;;;;5041567;28;20029;-72
2023/01/04 03:18:43;;;;;;;3.13;2.90;;;10.90;99.90;;;;;;5053657;28;20037;-73
2023/01/04 03:21:10;;;;;;;;;;;10.90;99.90;;;;;;5056818;28;20013;-74
2023/01/04 03:35:22;;;;;;;2.97;2.55;;;11.10;99.90;;;;;;5053697;28;20035;-72
2023/01/04 03:49:56;;;;;;;2.95;2.05;;;11.10;99.90;;;;;;5039273;28;20059;-72
2023/01/04 03:52:25;;;;;;;6.18;3.38;;;11.00;99.90;;;;;;5053289;28;20017;-72
2023/01/04 03:54:53;;;;;;;2.42;2.22;;;11.00;99.90;;;;;;5052457;28;20036;-72
2023/01/04 03:57:19;;;;;;;2.20;2.03;;;11.10;99.90;;;;;;5053201;28;20064;-73
2023/01/04 03:59:52;;;;;;;1.85;1.75;;;11.10;99.90;;;;;;5052641;28;20547;-73
2023/01/04 04:02:23;;;;;;;3.40;2.05;;;11.10;99.90;;;;;;5053883;28;20049;-73
2023/01/04 04:10:17;;;;;;;2.72;2.45;;;11.10;99.90;;;;;;5052683;28;20082;-72
2023/01/04 04:12:43;;;;;;;3.17;2.53;;;11.10;99.90;;;;;;5053402;28;20025;-73
2023/01/04 04:15:09;;;;;;;2.70;2.50;;;11.10;99.90;;;;;;5052339;28;20025;-73
2023/01/04 04:17:35;;;;;;;4.28;3.08;;;11.10;99.90;;;;;;5045330;28;20052;-72
2023/01/04 04:20:00;;;;;;;3.47;2.80;;;11.20;99.90;;;;;;5045418;28;20080;-72
2023/01/04 04:22:26;;;;;;;2.40;2.30;;;11.20;99.90;;;;;;5051587;28;20536;-73
2023/01/04 04:24:54;;;;;;;4.20;2.30;;;11.20;99.90;;;;;;5051421;28;20025;-73
2023/01/04 04:27:20;;;;;;;3.42;2.47;;;11.30;99.90;;;;;;5052329;28;20045;-73
2023/01/04 04:29:46;;;;;;;4.18;2.40;;;11.30;99.90;;;;;;5051542;28;20508;-73
2023/01/04 04:32:11;;;;;;;2.83;2.00;;;11.30;99.90;;;;;;5052097;28;20033;-73
2023/01/04 04:34:37;;;;;;;2.60;2.28;;;11.30;99.90;;;;;;5052261;28;20060;-73
2023/01/04 04:37:02;;;;;;;4.65;2.55;;;11.30;99.90;;;;;;5051396;28;20033;-72
2023/01/04 04:39:28;;;;;;;2.30;2.00;;;11.40;99.90;;;;;;5052140;28;20033;-73
2023/01/04 04:41:53;;;;;;;5.88;2.28;;;11.40;99.90;;;;;;5051519;28;20025;-72
2023/01/04 04:44:19;;;;;;;4.07;2.42;;;11.40;99.90;;;;;;5052198;28;20032;-72
2023/01/04 04:46:47;;;;;;;2.95;2.53;;;11.30;99.90;;;;;;5052393;28;20052;-73
2023/01/04 04:49:13;;;;;;;3.65;2.83;;;11.30;99.90;;;;;;5051411;28;20032;-73
2023/01/04 04:51:40;;;;;;;2.70;2.50;;;11.30;99.90;;;;;;5052351;28;20385;-73
2023/01/04 04:54:08;;;;;;;4.93;2.67;;;11.30;99.90;;;;;;5052217;28;20025;-73
2023/01/04 04:56:35;;;;;;;2.45;2.30;;;11.30;99.90;;;;;;5051726;28;20021;-72
2023/01/04 04:59:05;;;;;;;4.47;3.33;;;11.30;99.90;;;;;;5052124;28;20041;-73
2023/01/04 05:01:30;;;;;;;3.55;3.30;;;11.30;99.90;;;;;;5052498;28;20098;-72
2023/01/04 05:03:56;;;;;;;4.35;3.97;;;11.20;99.90;;;;;;5051106;28;20032;-72
2023/01/04 05:06:22;;;;;;;5.25;4.53;;;11.20;99.90;;;;;;5033383;28;20088;-73
2023/01/04 05:08:47;;;;;;;5.65;5.25;;;11.30;99.90;;;;;;5051015;28;20082;-73
2023/01/04 05:11:13;;;;;;;6.60;6.10;;;11.20;99.90;;;;;;5047258;28;20033;-72
2023/01/04 05:13:39;;;;;;;5.78;5.38;;;11.20;99.90;;;;;;5031685;28;20026;-72
2023/01/04 05:16:07;;;;;;;5.88;5.38;;;11.20;99.90;;;;;;5030922;28;20516;-73
2023/01/04 05:18:33;;;;;;;6.18;5.78;;;11.20;99.90;;;;;;5030256;28;20037;-72
2023/01/04 05:20:59;;;;;;;6.80;6.10;;;11.30;99.90;;;;;;5031876;28;20339;-74
2023/01/04 05:23:25;;;;;;;6.88;5.88;;;11.20;99.90;;;;;;5034230;28;20036;-72
2023/01/04 05:25:55;;;;;;;6.03;5.63;;;11.30;99.90;;;;;;5035490;28;20100;-72
2023/01/04 05:28:21;;;;;;;5.78;5.20;;;11.20;99.90;;;;;;5040704;28;20569;-72
2023/01/04 05:30:52;;;;;;;5.00;4.70;;;11.30;99.90;;;;;;5041318;28;20132;-72
2023/01/04 05:33:23;;;;;;;4.15;3.85;;;11.30;99.90;;;;;;5031330;28;20026;-71
2023/01/04 05:35:50;;;;;;;4.65;4.25;;;11.30;99.90;;;;;;5036422;28;20540;-71
2023/01/04 05:38:16;;;;;;;5.68;4.13;;;11.30;99.90;;;;;;5045101;28;20033;-72
2023/01/04 05:40:42;;;;;;;4.05;3.75;;;11.30;99.90;;;;;;5043304;28;20021;-72
2023/01/04 05:43:08;;;;;;;2.90;2.70;;;11.30;99.90;;;;;;5038486;28;20025;-72
2023/01/04 05:45:34;;;;;;;4.20;3.90;;;11.30;99.90;;;;;;5034671;28;20021;-72
2023/01/04 05:47:59;;;;;;;4.60;4.20;;;11.40;99.90;;;;;;5035303;28;20026;-72
2023/01/04 05:50:25;;;;;;;4.80;4.40;;;11.40;99.90;;;;;;5041710;28;20030;-73
2023/01/04 05:52:51;;;;;;;5.07;4.68;;;11.30;99.90;;;;;;5035622;28;20032;-71
2023/01/04 05:55:17;;;;;;;5.80;4.80;;;11.30;99.90;;;;;;5035129;28;20030;-71
2023/01/04 05:57:43;;;;;;;4.82;4.43;;;11.30;99.90;;;;;;5035024;28;20036;-73
2023/01/04 06:00:10;;;;;;;5.18;4.75;;;11.30;99.90;;;;;;5041855;28;20017;-72
2023/01/04 06:02:36;;;;;;;4.72;4.32;;;11.30;99.90;;;;;;5040513;28;20036;-72
2023/01/04 06:05:01;;;;;;;5.45;5.00;;;11.40;99.90;;;;;;5042740;28;20104;-72
2023/01/04 06:07:28;;;;;;;5.15;4.85;;;11.40;99.90;;;;;;5042872;28;20461;-73
2023/01/04 06:09:54;;;;;;;5.35;4.88;;;11.40;99.90;;;;;;5054716;28;20032;-73
2023/01/04 06:12:20;;;;;;;5.03;4.55;;;11.40;99.90;;;;;;5055417;28;20021;-72
2023/01/04 06:14:45;;;;;;;5.07;4.50;;;11.40;99.90;;;;;;5054283;28;20461;-71
2023/01/04 06:17:11;;;;;;;5.15;4.65;;;11.40;99.90;;;;;;5054359;28;20070;-72
2023/01/04 06:19:37;;;;;;;5.72;4.40;;;11.40;99.90;;;;;;5054594;28;20051;-72
2023/01/04 06:22:03;;;;;;;5.00;4.57;;;11.40;99.90;;;;;;5053841;28;20044;-73
2023/01/04 06:24:28;;;;;;;4.80;3.47;;;11.50;99.90;;;;;;5054825;28;20021;-72
2023/01/04 06:26:54;;;;;;;3.70;3.40;;;11.50;99.90;;;;;;5054696;28;20457;-72
2023/01/04 06:29:19;;;;;;;5.88;3.65;;;11.50;99.90;;;;;;5039698;28;20037;-72
2023/01/04 06:31:45;;;;;;;3.58;3.33;;;11.60;99.90;;;;;;5051185;28;20029;-73
2023/01/04 06:34:11;;;;;;;4.50;3.47;;;11.60;99.90;;;;;;5036943;28;20021;-72
2023/01/04 06:36:37;;;;;;;4.82;3.40;;;11.60;99.90;;;;;;5033731;28;20041;-72
2023/01/04 06:39:03;;;;;;;4.10;3.47;;;11.60;99.90;;;;;;5033705;28;20037;-72
2023/01/04 06:41:28;;;;;;;4.60;2.90;;;11.60;99.90;;;;;;5033566;28;20025;-72
2023/01/04 06:43:54;;;;;;;4.25;2.30;;;11.60;99.90;;;;;;5033505;28;20037;-72
2023/01/04 06:46:20;;;;;;;6.05;2.70;;;11.60;99.90;;;;;;5033802;28;20021;-73
2023/01/04 06:48:45;;;;;;;4.72;2.45;;;11.70;99.90;;;;;;5034146;28;20036;-72
2023/01/04 06:51:11;;;;;;;6.82;2.75;;;11.70;99.90;;;;;;5048212;28;20061;-73
2023/01/04 06:53:36;;;;;;;8.85;2.58;;;11.70;99.90;;;;;;5042826;28;20087;-74
2023/01/04 06:56:02;;;;;;;5.85;2.38;;;11.70;99.90;;;;;;5035387;28;20108;-73
2023/01/04 06:58:28;;;;;;;5.80;2.78;;;11.70;99.90;;;;;;5035162;28;20033;-73
2023/01/04 07:00:54;;;;;;;8.27;2.17;;;11.70;99.90;;;;;;5033995;28;20036;-72
2023/01/04 07:03:21;;;;;;;4.75;2.78;;;11.70;99.90;;;;;;5033580;28;20108;-72
2023/01/04 07:05:47;;;;;;;8.93;2.67;;;11.70;99.90;;;;;;5033795;28;20072;-72
2023/01/04 07:08:13;;;;;;;12.38;2.80;;;11.70;99.90;;;;;;5047691;28;20021;-72
2023/01/04 07:10:39;;;;;;;5.07;2.70;;;11.70;99.90;;;;;;5053443;28;20114;-72
2023/01/04 07:13:05;;;;;;;6.20;2.83;;;11.70;99.90;;;;;;5054395;28;20052;-73
2023/01/04 07:15:31;;;;;;;6.47;2.17;;;11.70;99.90;;;;;;5053388;28;20056;-73
2023/01/04 07:17:56;;;;;;;3.92;2.28;;;11.70;99.90;;;;;;5052659;28;20627;-72
2023/01/04 07:20:22;;;;;;;7.38;2.50;;;11.70;99.90;;;;;;5053370;28;20017;-72
2023/01/04 07:22:48;;;;;;;9.68;2.67;;;11.70;99.90;;;;;;5053642;28;20036;-73
2023/01/04 07:25:14;;;;;;;3.80;1.77;;;11.70;99.90;;;;;;5052490;28;20112;-72
2023/01/04 07:27:39;;;;;;;7.45;1.95;;;11.70;99.90;;;;;;5053263;28;20025;-73
2023/01/04 07:30:06;;;;;;;6.50;2.08;;;11.70;99.90;;;;;;5052887;28;20477;-72
2023/01/04 07:32:31;;;;;;;6.55;1.50;;;11.70;99.90;;;;;;5038382;28;20073;-71
2023/01/04 07:34:57;;;;;;;8.88;3.10;;;11.70;99.90;;;;;;5052937;28;20048;-72
2023/01/04 07:37:23;;;;;;;6.82;2.00;;;11.70;99.90;;;;;;5052705;28;20025;-72
2023/01/04 07:39:48;;;;;;;4.97;1.60;;;11.80;99.90;;;;;;5052538;28;20028;-72
2023/01/04 07:42:14;;;;;;;10.63;1.98;;;11.70;99.90;;;;;;5053093;28;20545;-73
2023/01/04 07:44:40;;;;;;;4.72;1.80;;;11.70;99.90;;;;;;5052604;28;20028;-71
2023/01/04 07:47:06;;;;;;;7.18;2.58;;;11.70;99.90;;;;;;5052184;28;20325;-71
2023/01/04 07:49:31;;;;;;;4.93;2.08;;;11.70;99.90;;;;;;5052794;28;20021;-72
2023/01/04 07:51:57;;;;;;;2.55;1.67;;;11.80;99.90;;;;;;5051909;28;20028;-72
2023/01/04 07:54:26;;;;;;;3.00;1.98;;;11.70;99.90;;;;;;5052972;28;20104;-72
2023/01/04 07:56:52;;;;;;;5.32;2.03;;;11.80;99.90;;;;;;5052525;28;20440;-73
2023/01/04 07:59:19;;;;;;;4.07;2.00;;;11.70;99.90;;;;;;5051587;28;20087;-73
2023/01/04 08:01:45;;;;;;;3.60;2.15;;;11.70;99.90;;;;;;5052841;28;20033;-73
2023/01/04 08:04:12;;;;;;;2.85;1.60;;;11.70;99.90;;;;;;5052177;28;20061;-72
2023/01/04 08:06:39;;;;;;;3.92;2.25;;;11.80;99.90;;;;;;5033456;28;20065;-72
2023/01/04 08:09:05;;;;;;;2.55;2.35;;;11.90;99.90;;;;;;5033044;28;20100;-71
2023/01/04 08:11:32;;;;;;;3.33;1.75;;;11.70;99.90;;;;;;5032792;28;20358;-71
2023/01/04 08:13:57;;;;;;;4.97;2.30;;;11.70;99.90;;;;;;5045020;28;20029;-71
2023/01/04 08:16:38;;;;;;;4.22;2.40;;;11.70;99.90;;;;;;5034736;28;20034;-72
2023/01/04 08:19:11;;;;;;;3.33;2.83;;;11.70;99.90;;;;;;5042738;28;20037;-72
2023/01/04 08:21:37;;;;;;;4.20;2.55;;;11.70;99.90;;;;;;5041995;28;20059;-72
2023/01/04 08:24:03;;;;;;;2.22;2.03;;;11.80;99.90;;;;;;5033275;28;20053;-71
2023/01/04 08:26:30;;;;;;;4.38;2.15;;;11.80;99.90;;;;;;5033926;28;20024;-72
2023/01/04 08:28:56;;;;;;;4.15;2.40;;;11.70;99.90;;;;;;5030836;28;20081;-72
2023/01/04 08:31:24;;;;;;;2.60;2.38;;;11.80;99.90;;;;;;5032190;28;20071;-71
2023/01/04 08:33:51;;;;;;;2.47;2.28;;;11.90;99.90;;;;;;5041977;28;20062;-73
2023/01/04 08:36:28;;;;;;;4.15;2.80;;;11.80;99.90;;;;;;5032156;28;20366;-72
2023/01/04 08:39:05;;;;;;;3.40;2.53;;;11.80;99.90;;;;;;5031003;28;20112;-73
2023/01/04 08:41:49;;;;;;;3.13;2.38;;;11.80;99.90;;;;;;5031844;28;20049;-73
2023/01/04 08:44:24;;;;;;;5.63;2.70;;;11.80;99.90;;;;;;5030639;28;20037;-73
2023/01/04 08:46:51;;;;;;;4.10;2.30;;;11.80;99.90;;;;;;5032298;28;20067;-73
2023/01/04 08:49:17;;;;;;;4.30;2.85;;;11.80;99.90;;;;;;5040408;28;20025;-73
2023/01/04 08:51:43;;;;;;;4.45;3.40;;;11.80;99.90;;;;;;5032106;28;20478;-72
2023/01/04 08:54:09;;;;;;;4.57;2.42;;;11.80;99.90;;;;;;5031311;28;20028;-72
2023/01/04 08:56:35;;;;;;;6.40;2.53;;;11.80;99.90;;;;;;5031117;28;20079;-72
2023/01/04 08:59:01;;;;;;;5.68;2.70;;;11.90;99.90;;;;;;5031215;28;20131;-73
2023/01/04 09:01:27;;;;;;;8.32;3.88;;;12.50;99.90;;;;;;5044897;28;20029;-74
2023/01/04 09:03:55;;;;;;;4.45;2.80;;;11.80;99.90;;;;;;5031634;28;20373;-73
2023/01/04 09:06:21;;;;;;;3.85;2.28;;;11.90;99.90;;;;;;5032823;28;20026;-75
2023/01/04 09:08:46;;;;;;;3.92;2.63;;;11.90;99.90;;;;;;5050562;28;20366;-73
2023/01/04 09:11:18;;;;;;;7.72;2.95;;;11.90;99.90;;;;;;5055003;28;20059;-74
2023/01/04 09:13:44;;;;;;;6.10;2.35;;;11.90;99.90;;;;;;5055612;28;20473;-74
2023/01/04 09:16:16;;;;;;;2.95;2.22;;;12.00;99.90;;;;;;5055389;28;20032;-73
2023/01/04 09:18:42;;;;;;;5.25;2.63;;;11.90;99.90;;;;;;5055862;28;20124;-74
2023/01/04 09:21:10;;;;;;;6.25;2.00;;;11.90;99.90;;;;;;5049177;28;20018;-72
2023/01/04 09:23:36;;;;;;;5.85;2.22;;;11.90;99.90;;;;;;5035237;28;20390;-73
2023/01/04 09:26:06;;;;;;;10.23;2.88;;;11.90;99.90;;;;;;5035151;28;20549;-73
2023/01/04 09:28:32;;;;;;;5.43;2.58;;;11.90;99.90;;;;;;5039823;28;20390;-74
2023/01/04 09:30:57;;;;;;;7.30;2.38;;;11.90;99.90;;;;;;5035221;28;20095;-73
2023/01/04 09:33:23;;;;;;;3.00;1.70;;;12.00;99.90;;;;;;5035622;28;20021;-72
2023/01/04 09:35:48;;;;;;;8.98;2.38;;;12.00;99.90;;;;;;5035950;28;20025;-71
2023/01/04 09:38:14;;;;;;;8.07;2.47;;;12.00;99.90;;;;;;5041071;28;20087;-73
2023/01/04 09:41:00;;;;;;;6.35;2.35;;;12.00;99.90;;;;;;5035756;28;20026;-72
2023/01/04 09:43:31;;;;;;;5.25;2.38;;;12.00;99.90;;;;;;5035189;28;20087;-72
2023/01/04 09:46:08;;;;;;;11.85;2.45;;;12.00;99.90;;;;;;5033587;28;20043;-72
2023/01/04 09:48:35;;;;;;;4.75;2.17;;;12.00;99.90;;;;;;5040445;28;20033;-72
2023/01/04 09:51:05;;;;;;;5.25;1.95;;;12.10;99.90;;;;;;5033758;28;20474;-72
2023/01/04 09:53:40;;;;;;;6.07;2.40;;;12.00;99.90;;;;;;5033406;28;20104;-72
2023/01/04 09:56:22;;;;;;;5.25;2.08;;;12.00;99.90;;;;;;5034660;28;20390;-73
2023/01/04 09:58:49;;;;;;;5.78;2.30;;;12.00;99.90;;;;;;5034507;28;20049;-72
2023/01/04 10:01:27;;;;;;;6.95;2.17;;;12.00;99.90;;;;;;5034798;28;20034;-72
2023/01/04 10:04:14;;;;;;;8.13;2.28;;;12.10;99.90;;;;;;5045269;28;20048;-72
2023/01/04 10:06:40;;;;;;;3.85;1.85;;;12.00;99.90;;;;;;5039945;28;20025;-72
2023/01/04 10:09:11;;;;;;;13.70;2.90;;;12.00;99.90;;;;;;5053448;28;20029;-72
2023/01/04 10:12:00;;;;;;;7.97;2.83;;;12.10;99.90;;;;;;5053746;28;20032;-72
2023/01/04 10:14:50;;;;;;;5.80;3.33;;;12.10;99.90;;;;;;5053510;28;20033;-72
2023/01/04 10:17:42;;;;;;;6.53;2.72;;;12.10;99.90;;;;;;5053955;28;20025;-72
2023/01/04 10:20:49;;;;;;;10.13;3.58;;;12.10;99.90;;;;;;5055109;28;20040;-71
2023/01/04 10:23:18;;;;;;;9.63;2.97;;;12.10;99.90;;;;;;5053225;28;20485;-73
2023/01/04 10:25:54;;;;;;;8.38;4.18;;;12.10;99.90;;;;;;5058969;28;20105;-72
2023/01/04 10:28:32;;;;;;;12.98;4.20;;;12.10;99.90;;;;;;5058042;28;20103;-73
2023/01/04 10:31:12;;;;;;;9.70;3.35;;;12.10;99.90;;;;;;5054972;28;20021;-72
2023/01/04 10:33:47;;;;;;;9.10;3.67;;;12.90;99.90;;;;;;5054161;28;20076;-72
2023/01/04 10:36:27;;;;;;;16.30;4.28;;;12.10;99.90;;;;;;5054580;28;20021;-72
2023/01/04 10:39:12;;;;;;;11.77;3.00;;;12.20;99.90;;;;;;5054060;28;20040;-72
2023/01/04 10:41:44;;;;;;;12.45;3.72;;;12.10;99.90;;;;;;5053864;28;20025;-72
2023/01/04 10:44:17;;;;;;;10.93;2.83;;;12.20;99.90;;;;;;5053997;28;20021;-72
2023/01/04 10:46:51;;;;;;;13.23;3.58;;;12.20;99.90;;;;;;5054496;28;20021;-72
2023/01/04 10:49:34;;;;;;;6.25;2.13;;;12.10;99.90;;;;;;5053224;28;20037;-71
2023/01/04 10:52:32;;;;;;;9.00;2.90;;;12.20;99.90;;;;;;5054107;28;20087;-71
2023/01/04 10:55:16;;;;;;;8.38;2.45;;;12.20;99.90;;;;;;5043028;28;20710;-71
2023/01/04 10:57:54;;;;;;;7.10;2.58;;;12.10;99.90;;;;;;5054112;28;20036;-71
2023/01/04 11:00:30;;;;;;;7.63;2.78;;;12.20;99.90;;;;;;5053812;28;20492;-71
2023/01/04 11:03:16;;;;;;;6.60;3.65;;;12.20;99.90;;;;;;5052996;28;20051;-72
2023/01/04 11:05:46;;;;;;;9.18;3.08;;;12.20;99.90;;;;;;5046469;28;20025;-71
2023/01/04 11:08:21;;;;;;;5.78;2.92;;;12.20;99.90;;;;;;5047995;28;20029;-72
2023/01/04 11:11:03;;;;;;;6.32;2.30;;;12.20;99.90;;;;;;5053468;28;20032;-72
2023/01/04 11:13:28;;;;;;;3.22;1.90;;;12.20;99.90;;;;;;5053581;28;20056;-72
2023/01/04 11:16:00;;;;;;;10.73;2.15;;;12.20;99.90;;;;;;5052773;28;20051;-72
2023/01/04 11:18:25;;;;;;;5.65;2.00;;;12.30;99.90;;;;;;5053853;28;20048;-72
2023/01/04 11:20:51;;;;;;;3.90;1.80;;;12.30;99.90;;;;;;5053663;28;20025;-71
2023/01/04 11:23:19;;;;;;;4.40;1.98;;;12.30;99.90;;;;;;5053504;28;20036;-72
2023/01/04 11:25:58;;;;;;;5.30;2.22;;;12.40;99.90;;;;;;5053637;28;20032;-71
2023/01/04 11:28:38;;;;;;;4.78;2.35;;;12.40;99.90;;;;;;5053744;28;20052;-73
2023/01/04 11:31:07;;;;;;;5.97;2.35;;;12.50;99.90;;;;;;5052825;28;20499;-71
2023/01/04 11:33:56;;;;;;;4.80;1.80;;;12.50;99.90;;;;;;5053284;28;20029;-71
2023/01/04 11:36:37;;;;;;;4.57;2.00;;;12.50;99.90;;;;;;5041359;28;20492;-71
2023/01/04 11:39:06;;;;;;;7.90;1.88;;;12.60;99.90;;;;;;5052438;28;20083;-72
2023/01/04 11:41:32;;;;;;;8.55;2.53;;;12.70;99.90;;;;;;5053790;28;20074;-72
2023/01/04 11:44:02;;;;;;;5.28;2.30;;;12.70;99.90;;;;;;5052494;28;20482;-72
2023/01/04 11:46:29;;;;;;;3.70;1.90;;;12.70;99.90;;;;;;5053321;28;20021;-72
2023/01/04 11:48:55;;;;;;;7.30;2.17;;;12.70;99.90;;;;;;5053224;28;20518;-72
2023/01/04 11:51:27;;;;;;;2.08;1.38;;;12.70;99.90;;;;;;5052676;28;20024;-72
2023/01/04 11:54:01;;;;;;;6.30;1.48;;;12.80;99.90;;;;;;5053014;28;20074;-72
2023/01/04 11:56:31;;;;;;;8.30;1.67;;;12.70;99.90;;;;;;5053010;28;20033;-71
2023/01/04 11:59:17;;;;;;;5.40;1.17;;;12.80;99.90;;;;;;5051890;28;20592;-71
2023/01/04 12:01:45;;;;;;;6.47;1.60;;;12.80;99.90;;;;;;5052667;28;20036;-72
2023/01/04 12:04:23;;;;;;;8.98;1.45;;;12.80;99.90;;;;;;5052719;28;20511;-72
2023/01/04 12:07:16;;;;;;;7.05;1.85;;;12.90;99.90;;;;;;5038243;28;20029;-72
2023/01/04 12:09:42;;;;;;;5.82;2.03;;;12.90;99.90;;;;;;5053461;28;20072;-72
2023/01/04 12:12:12;;;;;;;4.47;1.58;;;12.90;99.90;;;;;;5052776;28;20477;-72
2023/01/04 12:14:44;;;;;;;3.97;1.47;;;12.90;99.90;;;;;;5053478;28;20029;-71
2023/01/04 12:17:25;;;;;;;7.22;1.52;;;13.10;99.90;;;;;;5053198;28;20029;-72
2023/01/04 12:19:54;;;;;;;6.43;1.80;;;13.00;99.90;;;;;;5052249;28;20075;-71
2023/01/04 12:22:37;;;;;;;4.97;1.90;;;13.00;99.90;;;;;;5052480;28;20499;-72
2023/01/04 12:25:06;;;;;;;11.90;1.63;;;13.00;99.90;;;;;;5052620;28;20028;-72
2023/01/04 12:27:32;;;;;;;4.53;1.03;;;13.00;99.90;;;;;;5057526;28;20090;-71
2023/01/04 12:30:05;;;;;;;2.90;1.30;;;13.00;99.90;;;;;;5052208;28;20536;-72
2023/01/04 12:32:30;;;;;;;9.25;1.52;;;13.00;99.90;;;;;;5052468;28;20024;-72
2023/01/04 12:34:56;;;;;;;5.20;1.13;;;13.00;99.90;;;;;;5051667;28;20021;-72
2023/01/04 12:37:44;;;;;;;10.68;1.58;;;13.00;99.90;;;;;;5052463;28;20028;-71
2023/01/04 12:40:44;;;;;;;10.95;1.83;;;13.00;99.90;;;;;;5051115;28;20485;-72
2023/01/04 12:43:15;;;;;;;8.20;1.48;;;13.00;99.90;;;;;;5039828;28;20024;-73
2023/01/04 12:45:47;;;;;;;11.85;2.22;;;13.00;99.90;;;;;;5038849;28;20029;-72
2023/01/04 12:51:25;;;;;;;13.35;2.40;;;13.00;99.90;;;;;;5051880;28;20095;-71
2023/01/04 12:53:59;;;;;;;7.63;2.00;;;13.00;99.90;;;;;;5051920;28;20024;-72
2023/01/04 12:57:02;;;;;;;5.28;1.88;;;13.00;99.90;;;;;;5051496;28;20469;-72
2023/01/04 12:59:51;;;;;;;12.38;2.85;;;12.90;99.90;;;;;;5051851;28;20041;-72
2023/01/04 13:02:20;;;;;;;8.27;2.20;;;13.00;99.90;;;;;;5051227;28;20112;-72
2023/01/04 13:04:46;;;;;;;5.38;1.58;;;12.90;99.90;;;;;;5051856;28;20474;-72
2023/01/04 13:07:26;;;;;;;9.63;1.98;;;12.90;99.90;;;;;;5037912;28;20047;-73
2023/01/04 13:10:24;;;;;;;7.43;1.77;;;12.90;99.90;;;;;;5051146;28;20021;-72
2023/01/04 13:13:04;;;;;;;6.70;1.85;;;12.90;99.90;;;;;;5041727;28;20135;-72
2023/01/04 13:15:50;;;;;;;9.23;1.20;;;12.90;99.90;;;;;;5037244;28;20032;-71
2023/01/04 13:18:28;;;;;;;7.07;1.67;;;12.90;99.90;;;;;;5051950;28;20112;-73
2023/01/04 13:20:54;;;;;;;4.38;1.70;;;12.90;99.90;;;;;;5038301;28;20373;-72
2023/01/04 13:23:20;;;;;;;9.48;2.15;;;12.80;99.90;;;;;;5050985;28;20143;-72
2023/01/04 13:25:46;;;;;;;11.07;1.83;;;12.90;99.90;;;;;;5051976;28;20025;-72
2023/01/04 13:28:17;;;;;;;12.95;2.15;;;12.80;99.90;;;;;;5051289;28;20045;-72
2023/01/04 13:30:44;;;;;;;11.40;1.83;;;12.80;99.90;;;;;;5051091;28;20025;-72
2023/01/04 13:33:21;;;;;;;9.63;2.40;;;12.80;99.90;;;;;;5051391;28;20086;-73
2023/01/04 13:36:09;;;;;;;6.93;2.13;;;12.80;99.90;;;;;;5058448;28;20025;-73
2023/01/04 13:38:38;;;;;;;14.25;2.05;;;12.80;99.90;;;;;;5051639;28;20041;-73
2023/01/04 13:41:18;;;;;;;14.98;1.90;;;12.80;99.90;;;;;;5051676;28;20096;-73
2023/01/04 13:44:02;;;;;;;11.13;2.08;;;12.80;99.90;;;;;;5051122;28;20086;-73
2023/01/04 13:46:28;;;;;;;4.97;1.60;;;12.80;99.90;;;;;;5039147;28;20104;-72
2023/01/04 13:48:59;;;;;;;13.27;2.20;;;12.80;99.90;;;;;;5051096;28;20429;-73
2023/01/04 13:51:33;;;;;;;8.57;1.75;;;12.90;99.90;;;;;;5051244;28;20044;-73